Time;durP1;ratioP1;P1;durP2;ratioP2;P2;SDS_P1;SDS_P2;PMS_P1;PMS_P2;Temp;Humidity;BMP_temperature;BMP_pressure;BME280_temperature;BME280_humidity;BME280_pressure;Samples;Min_cycle;Max_cycle;Signal;HPM_P1;HPM_P2
2022/06/15 00:04:04;;;;;;;;;;;16.90;99.90;;;15.74;70.24;95818.22;10478790;28;1801;-70
2022/06/15 00:09:09;;;;;;;;;;;16.80;99.90;;;15.53;72.42;95815.94;10499208;28;1834;-71
2022/06/15 00:14:12;;;;;;;;;;;16.80;99.90;;;15.60;71.58;95813.63;10471108;28;1850;-70
2022/06/15 00:19:15;;;;;;;;;;;16.70;99.90;;;15.74;71.28;95810.91;10466392;28;1906;-72
2022/06/15 00:24:18;;;;;;;;;;;16.70;99.90;;;16.00;70.74;95808.41;10468565;28;1888;-71
2022/06/15 00:29:21;;;;;;;;;;;16.70;99.90;;;15.66;72.44;95807.00;10466534;28;1826;-71
2022/06/15 00:34:24;;;;;;;;;;;16.60;99.90;;;15.54;72.17;95798.56;10459546;28;1877;-71
2022/06/15 00:39:27;;;;;;;;;;;16.60;99.90;;;15.84;73.46;95802.56;10466649;28;1988;-71
2022/06/15 00:44:30;;;;;;;;;;;16.40;99.90;;;15.48;73.79;95794.38;10453126;28;2216;-73
2022/06/15 00:49:33;;;;;;;;;;;16.50;99.90;;;15.85;72.48;95790.59;10469366;28;1931;-72
2022/06/15 00:54:36;;;;;;;;;;;16.50;99.90;;;15.92;72.94;95784.75;10469352;28;1862;-72
2022/06/15 00:59:39;;;;;;;;;;;16.60;99.90;;;15.74;71.64;95788.41;10460019;28;1917;-72
2022/06/15 01:04:43;;;;;;;;;;;16.70;99.90;;;15.48;73.48;95780.81;10468159;28;1934;-71
2022/06/15 01:09:46;;;;;;;;;;;16.50;99.90;;;15.23;74.70;95784.06;10463926;28;2303;-72
2022/06/15 01:14:50;;;;;;;;;;;16.40;99.90;;;15.38;75.45;95778.31;10473110;28;1899;-72
2022/06/15 01:19:54;;;;;;;;;;;16.30;99.90;;;15.51;74.24;95777.50;10466357;28;1979;-72
2022/06/15 01:24:59;;;;;;;;;;;16.30;99.90;;;15.95;72.01;95773.28;10464417;28;2322;-72
2022/06/15 01:30:08;;;;;;;;;;;16.50;99.90;;;15.13;74.89;95777.75;10476054;28;1930;-72
2022/06/15 01:35:14;;;;;;;;;;;16.40;99.90;;;15.01;76.58;95766.63;10488065;28;1993;-72
2022/06/15 01:40:17;;;;;;;;;;;16.10;99.90;;;14.92;76.42;95764.94;10473673;28;1987;-71
2022/06/15 01:45:20;;;;;;;;;;;16.10;99.90;;;14.70;78.11;95765.66;10479941;28;1964;-71
2022/06/15 01:50:23;;;;;;;;;;;15.90;99.90;;;14.64;78.73;95770.34;10472064;28;1951;-71
2022/06/15 01:55:27;;;;;;;;;;;15.60;99.90;;;15.04;78.23;95766.03;10471780;28;1943;-71
2022/06/15 02:00:30;;;;;;;;;;;15.50;99.90;;;15.41;76.65;95761.47;10466736;28;2010;-71
2022/06/15 02:05:33;;;;;;;;;;;15.70;99.90;;;15.65;75.83;95766.69;10469399;28;1943;-71
2022/06/15 02:10:36;;;;;;;;;;;15.90;99.90;;;15.52;74.42;95752.00;10473223;28;1986;-71
2022/06/15 02:15:39;;;;;;;;;;;16.20;99.90;;;15.58;73.56;95745.38;10483552;28;2813;-71
2022/06/15 02:20:42;;;;;;;;;;;16.20;99.90;;;15.40;74.59;95743.63;10470169;28;1959;-70
2022/06/15 02:25:45;;;;;;;;;;;16.30;99.90;;;14.81;77.51;95742.69;10475327;28;2023;-70
2022/06/15 02:30:49;;;;;;;;;;;15.90;99.90;;;14.94;78.46;95732.94;10473881;28;1931;-71
2022/06/15 02:35:52;;;;;;;;;;;15.70;99.90;;;14.83;79.80;95735.09;10474124;28;1864;-71
2022/06/15 02:40:56;;;;;;;;;;;15.60;99.90;;;14.56;80.59;95735.84;10466337;28;2402;-71
2022/06/15 02:45:59;;;;;;;;;;;15.60;99.90;;;14.77;79.80;95744.41;10476636;28;1966;-72
2022/06/15 02:51:08;;;;;;;;;;;15.50;99.90;;;14.59;81.19;95746.09;10474526;28;1892;-72
2022/06/15 02:56:12;;;;;;;;;;;15.50;99.90;;;15.01;79.41;95744.16;10474856;28;1880;-72
2022/06/15 03:01:15;;;;;;;;;;;15.50;99.90;;;14.64;81.50;95742.50;10472021;28;1966;-71
2022/06/15 03:06:18;;;;;;;;;;;15.50;99.90;;;14.39;82.85;95733.72;10470712;28;1857;-71
2022/06/15 03:11:23;;;;;;;;;;;15.30;99.90;;;14.47;83.06;95738.47;10476404;28;1935;-71
2022/06/15 03:16:27;;;;;;;;;;;15.40;99.90;;;14.59;82.61;95730.66;10470617;28;1908;-71
2022/06/15 03:21:31;;;;;;;;;;;15.40;99.90;;;14.41;83.18;95728.81;10487896;28;2050;-72
2022/06/15 03:26:34;;;;;;;;;;;15.40;99.90;;;14.66;83.03;95724.84;10467788;28;1476;-71
2022/06/15 03:31:37;;;;;;;;;;;15.40;99.90;;;14.56;82.88;95722.34;10476732;28;1605;-72
2022/06/15 03:36:40;;;;;;;;;;;15.40;99.90;;;14.55;83.29;95716.13;10474188;28;1484;-72
2022/06/15 03:41:43;;;;;;;;;;;15.40;99.90;;;14.78;81.73;95716.25;10471139;28;2025;-71
2022/06/15 03:46:46;;;;;;;;;;;15.50;99.90;;;15.40;78.87;95713.84;10473963;28;1879;-71
2022/06/15 03:51:50;;;;;;;;;;;15.80;99.90;;;15.85;76.57;95716.63;10470869;28;2087;-70
2022/06/15 03:56:53;;;;;;;;;;;16.30;99.90;;;16.01;75.28;95717.81;10463919;28;1832;-70
2022/06/15 04:01:56;;;;;;;;;;;16.70;99.90;;;15.37;77.61;95723.34;10461037;28;1989;-71
2022/06/15 04:07:00;;;;;;;;;;;16.60;99.90;;;14.78;81.50;95724.34;10473781;28;1876;-70
2022/06/15 04:12:08;;;;;;;;;;;16.10;99.90;;;14.53;83.16;95737.28;10483773;28;1470;-71
2022/06/15 04:17:11;;;;;;;;;;;15.80;99.90;;;14.49;84.11;95735.44;10461665;28;1817;-70
2022/06/15 04:22:14;;;;;;;;;;;15.50;99.90;;;14.35;85.76;95732.69;10464454;28;1977;-70
2022/06/15 04:27:18;;;;;;;;;;;15.40;99.90;;;14.33;86.27;95743.03;10480345;28;1831;-71
2022/06/15 04:32:21;;;;;;;;;;;15.20;99.90;;;14.49;86.01;95741.66;10466740;28;1856;-70
2022/06/15 04:37:24;;;;;;;;;;;15.30;99.90;;;14.87;84.04;95746.88;10469292;28;1883;-70
2022/06/15 04:42:27;;;;;;;;;;;15.50;99.90;;;15.14;82.62;95741.47;10468352;28;2050;-71
2022/06/15 04:47:29;;;;;;;;;;;15.80;99.90;;;15.60;79.69;95745.88;10467754;28;1809;-70
2022/06/15 04:52:32;;;;;;;;;;;16.20;99.90;;;15.94;77.56;95742.66;10471269;28;1890;-72
2022/06/15 04:57:37;;;;;;;;;;;16.50;99.90;;;16.51;74.70;95758.31;10478870;28;1873;-72
2022/06/15 05:02:40;;;;;;;;;;;16.90;99.90;;;16.56;74.02;95751.97;10461940;28;1926;-74
2022/06/15 05:07:43;;;;;;;;;;;17.20;99.90;;;16.83;72.62;95749.09;10475854;28;2204;-70
2022/06/15 05:12:46;;;;;;;;;;;17.50;99.90;;;16.67;74.30;95742.44;10473961;28;1893;-72
2022/06/15 05:17:50;;;;;;;;;;;17.40;99.90;;;17.02;72.85;95762.41;10472323;28;1876;-72
2022/06/15 05:22:53;;;;;;;;;;;17.60;99.90;;;17.36;70.16;95758.16;10475876;28;1914;-74
2022/06/15 05:27:57;;;;;;;;;;;18.00;99.90;;;18.08;67.51;95754.88;10479538;28;1833;-73
2022/06/15 05:32:59;;;;;;;;;;;18.40;99.90;;;18.52;65.75;95750.97;10474792;28;1799;-72
2022/06/15 05:38:03;;;;;;;;;;;18.90;99.90;;;18.83;65.04;95745.28;10477658;28;1910;-73
2022/06/15 05:43:06;;;;;;;;;;;19.40;99.90;;;19.16;63.43;95744.66;10475042;28;1861;-73
2022/06/15 05:48:09;;;;;;;;;;;19.80;99.90;;;18.98;63.46;95748.59;10490879;28;1748;-72
2022/06/15 05:53:12;;;;;;;;;;;19.70;99.90;;;18.55;66.06;95742.13;10478365;28;1852;-72
2022/06/15 05:58:16;;;;;;;;;;;19.60;99.90;;;18.64;65.50;95747.56;10479855;28;1976;-72
2022/06/15 06:03:19;;;;;;;;;;;19.40;99.90;;;19.34;62.98;95754.34;10475297;28;2000;-73
2022/06/15 06:08:22;;;;;;;;;;;19.80;99.90;;;19.82;60.58;95739.41;10472340;28;1847;-72
2022/06/15 06:13:26;;;;;;;;;;;20.10;99.90;;;19.89;60.79;95747.84;10465788;28;1852;-72
2022/06/15 06:18:29;;;;;;;;;;;20.40;99.90;;;20.40;58.44;95748.50;10468636;28;1905;-72
2022/06/15 06:23:33;;;;;;;;;;;20.80;99.90;;;20.28;57.20;95743.00;10470511;28;1837;-72
2022/06/15 06:28:38;;;;;;;;;;;21.00;99.90;;;20.37;58.03;95741.00;10473337;28;1921;-73
2022/06/15 06:33:41;;;;;;;;;;;21.10;99.90;;;20.87;56.29;95747.41;10469505;28;1854;-73
2022/06/15 06:38:44;;;;;;;;;;;21.40;99.90;;;21.33;55.44;95743.44;10469736;28;1915;-73
2022/06/15 06:43:48;;;;;;;;;;;21.80;99.90;;;21.86;53.18;95745.06;10466046;28;1771;-73
2022/06/15 06:48:51;;;;;;;;;;;22.10;99.90;;;21.01;55.51;95759.59;10477404;28;1885;-72
2022/06/15 06:53:54;;;;;;;;;;;22.00;99.90;;;21.75;52.95;95754.09;10471883;28;1828;-73
2022/06/15 06:58:57;;;;;;;;;;;22.20;99.90;;;21.47;54.83;95754.81;10484764;28;2033;-72
2022/06/15 07:04:00;;;;;;;;;;;22.40;99.90;;;21.40;55.43;95751.06;10472486;28;1915;-73
2022/06/15 07:09:03;;;;;;;;;;;22.20;99.90;;;21.66;54.56;95756.97;10477762;28;1748;-71
2022/06/15 07:14:06;;;;;;;;;;;22.30;99.90;;;21.28;55.26;95743.66;10471531;28;1789;-71
2022/06/15 07:19:16;;;;;;;;;;;22.30;99.90;;;21.69;52.12;95747.25;10469180;28;1910;-72
2022/06/15 07:24:19;;;;;;;;;;;22.20;99.90;;;21.54;53.34;95751.50;10455546;28;1734;-72
2022/06/15 07:29:22;;;;;;;;;;;22.30;99.90;;;21.70;52.78;95759.81;10471073;28;1825;-71
2022/06/15 07:34:25;;;;;;;;;;;22.50;99.90;;;22.01;51.91;95754.50;10467336;28;1791;-73
2022/06/15 07:39:28;;;;;;;;;;;22.60;99.90;;;21.72;51.71;95757.53;10469585;28;1919;-73
2022/06/15 07:44:37;;;;;;;;;;;22.80;99.90;;;21.58;53.10;95755.16;10465799;28;1834;-73
2022/06/15 07:49:55;;;;;;;;;;;22.50;99.90;;;21.96;52.55;95760.22;10474426;28;2529;-73
2022/06/15 07:55:18;;;;;;;;;;;22.70;99.90;;;22.10;53.65;95755.16;10467997;28;1889;-73
2022/06/15 08:00:21;;;;;;;;;;;22.90;99.90;;;22.26;53.59;95746.19;10470205;28;1981;-72
2022/06/15 08:05:24;;;;;;;;;;;22.90;99.90;;;22.38;51.87;95760.63;10470761;28;1870;-72
2022/06/15 08:10:27;;;;;;;;;;;23.20;99.90;;;21.64;56.40;95747.53;10470554;28;1854;-72
2022/06/15 08:15:30;;;;;;;;;;;22.80;99.90;;;22.22;54.11;95753.53;10485811;28;1871;-72
2022/06/15 08:20:35;;;;;;;;;;;22.90;99.90;;;23.02;52.37;95750.56;10464212;28;1918;-73
2022/06/15 08:25:40;;;;;;;;;;;23.40;99.90;;;23.62;50.41;95734.78;10459292;28;1875;-73
2022/06/15 08:30:43;;;;;;;;;;;23.90;99.90;;;23.18;49.32;95737.66;10468622;28;1776;-72
2022/06/15 08:35:47;;;;;;;;;;;24.20;99.90;;;22.66;50.36;95737.91;10471674;28;1899;-72
2022/06/15 08:40:50;;;;;;;;;;;23.80;99.90;;;22.51;49.85;95742.19;10469579;28;1895;-72
2022/06/15 08:45:54;;;;;;;;;;;23.60;99.90;;;23.06;48.67;95735.00;10472350;28;1750;-72
2022/06/15 08:50:57;;;;;;;;;;;23.80;99.90;;;23.11;48.82;95736.69;10468811;28;1804;-70
2022/06/15 08:56:01;;;;;;;;;;;23.80;99.90;;;23.02;49.22;95734.13;10467037;28;1809;-72
2022/06/15 09:01:04;;;;;;;;;;;23.70;99.90;;;23.69;47.90;95734.94;10465893;28;2008;-71
2022/06/15 09:06:07;;;;;;;;;;;24.20;99.90;;;23.58;47.78;95742.09;10471578;28;1804;-72
2022/06/15 09:11:10;;;;;;;;;;;24.50;99.90;;;23.84;47.17;95729.75;10469984;28;2126;-71
2022/06/15 09:16:18;;;;;;;;;;;24.60;99.90;;;23.97;47.12;95725.72;10461492;28;1785;-71
2022/06/15 09:21:22;;;;;;;;;;;24.70;99.90;;;24.21;47.69;95728.19;10466970;28;1976;-71
2022/06/15 09:26:24;;;;;;;;;;;25.00;99.90;;;24.68;46.20;95718.88;10460559;28;1829;-72
2022/06/15 09:31:27;;;;;;;;;;;25.30;99.90;;;24.79;45.27;95725.34;10462444;28;1875;-71
2022/06/15 09:36:31;;;;;;;;;;;25.70;99.90;;;24.94;44.83;95729.16;10458620;28;1846;-72
2022/06/15 09:41:33;;;;;;;;;;;25.80;99.90;;;24.66;45.83;95715.69;10469993;28;1967;-72
2022/06/15 09:46:37;;;;;;;;;;;25.50;99.90;;;25.17;43.75;95723.66;10463401;28;1782;-70
2022/06/15 09:51:40;;;;;;;;;;;25.80;99.90;;;24.96;44.55;95728.78;10475019;28;1786;-70
2022/06/15 09:56:43;;;;;;;;;;;26.00;99.90;;;25.03;44.46;95723.41;10466570;28;1838;-69
2022/06/15 10:01:47;;;;;;;;;;;25.80;99.90;;;25.21;42.81;95719.03;10472524;28;1961;-72
2022/06/15 10:06:52;;;;;;;;;;;26.00;99.90;;;25.05;42.50;95726.59;10472385;28;1808;-70
2022/06/15 10:11:54;;;;;;;;;;;26.10;99.90;;;25.29;42.00;95723.47;10474578;28;1839;-70
2022/06/15 10:16:58;;;;;;;;;;;26.20;99.90;;;25.36;41.27;95716.47;10474029;28;1889;-70
2022/06/15 10:22:01;;;;;;;;;;;26.30;99.90;;;25.36;42.10;95710.97;10477143;28;1988;-71
2022/06/15 10:27:04;;;;;;;;;;;26.20;99.90;;;25.42;41.71;95717.75;10474638;28;1813;-73
2022/06/15 10:32:08;;;;;;;;;;;26.30;99.90;;;25.66;40.91;95702.75;10469943;28;1903;-72
2022/06/15 10:37:13;;;;;;;;;;;26.40;99.50;;;26.77;38.17;95702.13;10468297;28;1860;-70
2022/06/15 10:42:16;;;;;;;;;;;27.10;98.70;;;27.26;36.92;95698.22;10463491;28;1981;-71
2022/06/15 10:47:20;;;;;;;;;;;;;;;27.86;34.80;95697.84;10468970;28;1606;-71
2022/06/15 10:52:23;;;;;;;;;;;;;;;27.80;34.80;95694.66;10471988;28;1900;-72
2022/06/15 11:02:47;;;;;;;;;;;;;;;27.68;34.81;95689.44;10471842;28;1989;-71
2022/06/15 11:07:51;;;;;;;;;;;;;;;27.63;35.61;95687.03;10474966;28;1825;-71
2022/06/15 11:12:55;;;;;;;;;;;;;;;27.86;35.27;95684.03;10466727;28;1831;-72
2022/06/15 11:18:05;;;;;;;;;;;;;;;28.31;34.39;95687.34;10468795;28;1867;-71
2022/06/15 11:23:09;;;;;;;;;;;;;;;28.47;34.80;95676.78;10472817;28;1976;-72
2022/06/15 11:28:13;;;;;;;;;;;;;;;27.54;36.86;95678.28;10472321;28;1843;-72
2022/06/15 11:33:17;;;;;;;;;;;;;;;27.28;39.10;95660.78;10472609;28;1852;-71
2022/06/15 11:38:21;;;;;;;;;;;;;;;26.24;40.29;95664.56;10467552;28;1838;-70
2022/06/15 11:43:25;;;;;;;;;;;;;;;26.37;40.09;95674.16;10472338;28;1918;-69
2022/06/15 11:48:28;;;;;;;;;;;;;;;26.84;39.46;95669.88;10480711;28;1869;-70
2022/06/15 11:53:32;;;;;;;;;;;;;;;26.32;40.25;95663.47;10470180;28;1782;-69
2022/06/15 11:58:36;;;;;;;;;;;;;;;27.10;37.50;95659.88;10470119;28;1798;-70
2022/06/15 12:03:39;;;;;;;;;;;;;;;27.27;37.64;95659.22;10469857;28;1985;-71
2022/06/15 12:08:43;;;;;;;;;;;;;;;27.48;37.79;95658.53;10470484;28;1780;-69
2022/06/15 12:13:46;;;;;;;;;;;;;;;27.48;37.70;95653.84;10469170;28;1865;-69
2022/06/15 12:18:50;;;;;;;;;;;;;;;26.82;38.53;95657.66;10474365;28;1890;-69
2022/06/15 12:23:58;;;;;;;;;;;;;;;27.11;38.23;95650.44;10466695;28;1931;-69
2022/06/15 12:29:01;;;;;;;;;;;;;;;27.02;38.45;95647.16;10467152;28;1785;-70
2022/06/15 12:34:10;;;;;;;;;;;;;;;26.37;40.09;95646.59;10483071;28;1832;-71
2022/06/15 12:39:14;;;;;;;;;;;;;;;27.99;34.90;95644.63;10471495;28;1882;-70
2022/06/15 12:44:18;;;;;;;;;;;;;;;28.32;35.32;95634.50;10474630;28;1938;-71
2022/06/15 12:49:21;;;;;;;;;;;;;;;28.12;35.66;95652.53;10478241;28;1804;-70
2022/06/15 12:54:25;;;;;;;;;;;28.90;99.90;;;28.19;35.18;95645.09;10465788;28;1838;-72
2022/06/15 12:59:31;;;;;;;;;;;;;;;26.97;37.34;95645.56;10469287;28;1822;-71
2022/06/15 13:04:36;;;;;;;;;;;28.40;99.90;;;27.78;35.25;95644.53;10471717;28;1971;-71
2022/06/15 13:09:41;;;;;;;;;;;;;;;27.79;35.58;95639.81;10462453;28;2129;-69
2022/06/15 13:14:47;;;;;;;;;;;;;;;28.45;33.04;95644.00;10460710;28;1835;-72
2022/06/15 13:19:54;;;;;;;;;;;;;;;28.94;33.19;95631.41;10468217;28;1994;-70
2022/06/15 13:24:57;;;;;;;;;;;;;;;29.39;33.46;95631.72;10465371;28;1918;-70
2022/06/15 13:30:01;;;;;;;;;;;;;;;29.37;33.62;95647.97;10476932;28;1773;-72
2022/06/15 13:35:04;;;;;;;;;;;;;;;29.15;33.75;95632.59;10479707;28;1818;-71
2022/06/15 13:40:09;;;;;;;;;;;;;;;29.27;34.02;95640.47;10483923;28;1870;-71
2022/06/15 13:45:13;;;;;;;;;;;;;;;29.43;34.46;95635.28;10479161;28;1954;-70
2022/06/15 13:50:17;;;;;;;;;;;;;;;29.77;33.21;95634.81;10472293;28;1796;-70
2022/06/15 13:55:20;;;;;;;;;;;30.80;84.90;;;30.04;32.06;95630.38;10474132;28;1867;-70
2022/06/15 14:00:23;;;;;;;;;;;30.80;84.60;;;30.08;32.03;95636.66;10467328;28;1913;-70
2022/06/15 14:05:26;;;;;;;;;;;31.00;84.30;;;29.61;32.93;95626.97;10470613;28;1790;-71
2022/06/15 14:10:32;;;;;;;;;;;30.60;83.40;;;29.98;32.94;95628.44;10468164;28;1872;-71
2022/06/15 14:15:35;;;;;;;;;;;30.80;83.90;;;29.27;33.50;95627.44;10467512;28;1916;-71
2022/06/15 14:20:39;;;;;;;;;;;30.50;83.40;;;28.59;34.55;95614.78;10486935;28;1942;-71
2022/06/15 14:25:42;;;;;;;;;;;30.00;84.20;;;29.26;34.23;95617.53;10470973;28;1853;-71
2022/06/15 14:30:45;;;;;;;;;;;29.90;84.70;;;29.45;34.08;95616.28;10460527;28;1861;-72
2022/06/15 14:35:49;;;;;;;;;;;30.20;85.40;;;29.41;33.80;95607.22;10480067;28;1769;-70
2022/06/15 14:40:54;;;;;;;;;;;30.30;84.50;;;28.91;34.13;95601.75;10473205;28;1988;-71
2022/06/15 14:45:57;;;;;;;;;;;29.90;83.80;;;29.15;33.52;95602.16;10475004;28;2205;-71
2022/06/15 14:51:01;;;;;;;;;;;29.90;83.10;;;28.93;32.76;95604.91;10470486;28;1589;-70
2022/06/15 14:56:04;;;;;;;;;;;30.00;82.20;;;29.18;33.33;95604.09;10471200;28;1847;-71
2022/06/15 15:01:09;;;;;;;;;;;30.00;83.20;;;29.49;32.13;95594.94;10463775;28;1929;-71
2022/06/15 15:06:12;;;;;;;;;;;30.20;82.40;;;29.89;31.43;95590.84;10474517;28;1792;-72
2022/06/15 15:11:15;;;;;;;;;;;30.70;81.20;;;29.72;31.93;95593.72;10480286;28;1788;-72
2022/06/15 15:16:19;;;;;;;;;;;30.60;80.90;;;29.34;33.24;95591.41;10463798;28;1841;-70
2022/06/15 15:21:21;;;;;;;;;;;30.40;82.30;;;29.50;32.78;95590.97;10472640;28;1918;-70
2022/06/15 15:26:24;;;;;;;;;;;30.30;81.90;;;29.17;32.73;95580.38;10471702;28;1940;-70
2022/06/15 15:42:09;;;;;;;;;;;30.00;82.30;;;29.49;32.60;95589.38;10475483;28;1913;-73
2022/06/15 15:47:14;;;;;;;;;;;30.00;82.20;;;29.29;33.04;95575.22;10467189;28;1777;-73
2022/06/15 15:52:17;;;;;;;;;;;30.20;82.00;;;28.65;34.16;95577.25;10471265;28;1744;-75
2022/06/15 15:57:20;;;;;;;;;;;29.70;82.00;;;28.94;33.79;95576.06;10472938;28;1873;-74
2022/06/15 16:02:24;;;;;;;;;;;29.70;82.70;;;29.41;32.76;95564.91;10473633;28;1918;-76
2022/06/15 16:07:29;;;;;;;;;;;29.80;82.20;;;28.83;33.41;95566.97;10472404;28;1837;-73
2022/06/15 16:12:32;;;;;;;;;;;29.80;81.30;;;28.06;34.40;95571.22;10463448;28;1825;-74
2022/06/15 16:17:36;;;;;;;;;;;29.10;82.60;;;28.28;34.01;95561.78;10469370;28;1876;-75
2022/06/15 16:22:39;;;;;;;;;;;28.90;82.20;;;28.27;35.45;95562.97;10511694;28;1890;-76
2022/06/15 16:27:42;;;;;;;;;;;29.00;83.70;;;27.69;35.56;95564.03;10486561;28;1814;-78
2022/06/15 16:32:46;;;;;;;;;;;28.80;82.80;;;27.59;36.71;95564.75;10472096;28;1826;-75
2022/06/15 16:37:48;;;;;;;;;;;28.50;84.40;;;27.56;36.83;95568.28;10467076;28;1975;-76
2022/06/15 16:42:52;;;;;;;;;;;28.50;84.70;;;27.39;35.46;95559.53;10474847;28;1910;-76
2022/06/15 16:47:55;;;;;;;;;;;28.30;83.40;;;27.36;37.10;95574.13;10478096;28;1842;-76
2022/06/15 16:52:58;;;;;;;;;;;28.10;85.10;;;27.31;36.77;95571.72;10474036;28;1812;-73
2022/06/15 16:58:03;;;;;;;;;;;28.10;84.80;;;27.17;37.07;95572.44;10471311;28;1794;-72
2022/06/15 17:03:06;;;;;;;;;;;28.00;85.50;;;27.09;37.92;95575.53;10474188;28;1918;-73
2022/06/15 17:08:09;;;;;;;;;;;27.90;85.50;;;26.89;38.68;95570.25;10481200;28;1810;-72
2022/06/15 17:13:17;;;;;;;;;;;27.70;86.40;;;26.57;39.05;95571.97;10474116;28;1830;-73
2022/06/15 17:18:20;;;;;;;;;;;27.60;86.60;;;26.32;39.25;95572.53;10479022;28;2003;-74
2022/06/15 17:23:23;;;;;;;;;;;27.30;87.00;;;26.26;39.52;95579.56;10476008;28;1917;-73
2022/06/15 17:28:26;;;;;;;;;;;27.10;87.70;;;26.14;39.50;95572.34;10478320;28;1927;-73
2022/06/15 17:33:29;;;;;;;;;;;27.00;87.70;;;25.95;40.24;95583.56;10475800;28;1803;-73
2022/06/15 17:38:31;;;;;;;;;;;26.80;87.70;;;25.73;40.39;95576.25;10475170;28;1900;-73
2022/06/15 17:43:34;;;;;;;;;;;26.60;88.30;;;25.55;41.67;95581.50;10475809;28;1983;-74
2022/06/15 17:48:37;;;;;;;;;;;26.50;89.20;;;25.46;41.76;95592.03;10478994;28;1773;-73
2022/06/15 17:53:41;;;;;;;;;;;26.30;89.60;;;25.46;42.61;95592.03;10480972;28;1725;-72
2022/06/15 17:58:44;;;;;;;;;;;26.30;90.50;;;25.38;42.94;95584.81;10473321;28;1869;-73
2022/06/15 18:03:48;;;;;;;;;;;26.20;91.00;;;25.36;42.41;95587.16;10471192;28;1914;-73
2022/06/15 18:08:51;;;;;;;;;;;26.20;90.90;;;25.32;42.97;95601.69;10477069;28;1973;-74
2022/06/15 18:13:54;;;;;;;;;;;26.10;91.30;;;25.26;43.60;95607.88;10497253;28;1781;-74
2022/06/15 18:18:57;;;;;;;;;;;26.10;92.00;;;25.21;44.17;95603.47;10477443;28;1869;-72
2022/06/15 18:24:00;;;;;;;;;;;26.00;92.50;;;25.15;45.24;95598.69;10472848;28;1914;-74
2022/06/15 18:29:04;;;;;;;;;;;26.00;93.60;;;24.98;46.14;95605.47;10477356;28;1851;-74
2022/06/15 18:34:09;;;;;;;;;;;25.90;94.20;;;24.80;46.27;95600.47;10479385;28;1733;-74
2022/06/15 18:39:12;;;;;;;;;;;25.70;94.50;;;24.67;47.29;95601.06;10474451;28;1870;-75
2022/06/15 18:49:45;;;;;;;;;;;25.40;96.00;;;24.22;49.42;95602.63;10454339;28;1948;-72
2022/06/15 18:54:49;;;;;;;;;;;25.20;97.30;;;23.92;49.92;95605.22;10471735;28;1893;-72
2022/06/15 18:59:54;;;;;;;;;;;24.90;97.80;;;23.67;50.91;95611.03;10488059;28;1952;-73
2022/06/15 19:04:59;;;;;;;;;;;24.70;98.40;;;23.53;51.46;95615.38;10474469;28;1985;-72
2022/06/15 19:10:03;;;;;;;;;;;24.50;98.90;;;23.48;51.29;95612.94;10470482;28;1928;-74
2022/06/15 19:15:06;;;;;;;;;;;24.40;99.00;;;23.29;52.17;95616.47;10472453;28;1897;-75
2022/06/15 19:20:09;;;;;;;;;;;24.30;99.70;;;23.21;52.90;95623.72;10471052;28;2035;-74
2022/06/15 19:25:13;;;;;;;;;;;24.20;99.90;;;23.04;53.71;95627.66;10466045;28;1984;-74
2022/06/15 19:30:18;;;;;;;;;;;24.00;99.90;;;22.82;55.29;95631.03;10467845;28;2032;-73
2022/06/15 19:35:22;;;;;;;;;;;23.90;99.90;;;22.68;55.86;95642.44;10470310;28;1859;-74
2022/06/15 19:40:26;;;;;;;;;;;23.70;99.90;;;22.64;56.65;95639.59;10467330;28;1930;-74
2022/06/15 19:45:28;;;;;;;;;;;23.60;99.90;;;22.52;57.42;95645.19;10483641;28;1917;-73
2022/06/15 19:50:32;;;;;;;;;;;23.50;99.90;;;22.30;57.94;95652.06;10474389;28;1876;-73
2022/06/15 19:55:37;;;;;;;;;;;23.40;99.90;;;22.16;58.67;95651.69;10475037;28;1748;-73
2022/06/15 20:00:40;;;;;;;;;;;23.20;99.90;;;22.09;59.08;95655.03;10473576;28;1798;-73
2022/06/15 20:05:44;;;;;;;;;;;23.10;99.90;;;21.99;59.84;95655.50;10468719;28;2009;-75
2022/06/15 20:10:47;;;;;;;;;;;23.00;99.90;;;21.88;60.93;95654.41;10472912;28;1793;-74
2022/06/15 20:15:51;;;;;;;;;;;22.90;99.90;;;21.74;62.99;95654.81;10465538;28;1905;-74
2022/06/15 20:20:55;;;;;;;;;;;22.80;99.90;;;21.62;63.39;95663.03;10476234;28;1902;-73
2022/06/15 20:25:58;;;;;;;;;;;22.70;99.90;;;21.56;64.51;95661.69;10469414;28;1910;-75
2022/06/15 20:31:01;;;;;;;;;;;22.50;99.90;;;21.47;64.38;95661.06;10504603;28;2383;-71
2022/06/15 20:36:04;;;;;;;;;;;22.50;99.90;;;21.44;66.83;95661.72;10513320;28;1905;-72
2022/06/15 20:41:07;;;;;;;;;;;22.40;99.90;;;21.31;67.84;95663.69;10466839;28;1879;-73
2022/06/15 20:46:10;;;;;;;;;;;22.30;99.90;;;21.17;68.44;95664.03;10465012;28;1948;-74
2022/06/15 20:51:23;;;;;;;;;;;22.20;99.90;;;21.10;69.00;95660.28;10462148;28;1924;-73
2022/06/15 20:56:52;;;;;;;;;;;22.10;99.90;;;20.97;68.72;95663.03;10464505;28;1872;-75
2022/06/15 21:01:56;;;;;;;;;;;22.00;99.90;;;20.92;68.36;95668.72;10477159;28;2655;-76
2022/06/15 21:07:07;;;;;;;;;;;21.90;99.90;;;20.87;69.16;95654.53;10477632;28;1957;-73
2022/06/15 21:17:38;;;;;;;;;;;21.80;99.90;;;20.83;70.19;95667.25;10480244;28;1786;-74
2022/06/15 21:22:42;;;;;;;;;;;21.70;99.90;;;20.72;69.87;95666.91;10465303;28;1977;-73
2022/06/15 21:27:46;;;;;;;;;;;21.60;99.90;;;20.65;69.99;95659.28;10476169;28;1837;-75
2022/06/15 21:32:51;;;;;;;;;;;21.50;99.90;;;20.64;69.66;95659.63;10470849;28;1827;-74
2022/06/15 21:37:55;;;;;;;;;;;21.60;99.90;;;20.55;69.40;95648.00;10472968;28;1962;-74
2022/06/15 21:43:00;;;;;;;;;;;21.50;99.90;;;20.55;69.48;95643.34;10469842;28;1983;-74
2022/06/15 21:48:05;;;;;;;;;;;21.40;99.90;;;20.54;69.88;95649.13;10473198;28;1742;-74
2022/06/15 21:53:08;;;;;;;;;;;21.20;99.90;;;20.58;69.77;95653.59;10478719;28;1994;-73
2022/06/15 21:58:12;;;;;;;;;;;21.40;99.90;;;20.35;70.14;95655.91;10482455;28;1898;-74
2022/06/15 22:03:14;;;;;;;;;;;21.40;99.90;;;20.26;70.78;95652.50;10481572;28;1914;-74
2022/06/15 22:08:19;;;;;;;;;;;21.20;99.90;;;20.18;71.29;95654.19;10485015;28;1889;-74
2022/06/15 22:13:23;;;;;;;;;;;21.10;99.90;;;20.25;71.66;95659.09;10470419;28;1861;-74
2022/06/15 22:18:27;;;;;;;;;;;21.10;99.90;;;20.11;71.59;95656.66;10478467;28;1853;-74
2022/06/15 22:23:30;;;;;;;;;;;21.00;99.90;;;20.11;71.76;95653.16;10479513;28;1906;-73
2022/06/15 22:28:34;;;;;;;;;;;20.90;99.90;;;20.00;72.17;95647.31;10476438;28;1729;-75
2022/06/15 22:33:38;;;;;;;;;;;20.90;99.90;;;19.95;72.39;95653.78;10471723;28;1777;-73
2022/06/15 22:38:43;;;;;;;;;;;20.90;99.90;;;19.90;73.33;95650.44;10475589;28;1873;-74
2022/06/15 22:43:47;;;;;;;;;;;20.80;99.90;;;19.78;74.10;95645.75;10470725;28;1914;-75
2022/06/15 22:54:12;;;;;;;;;;;20.60;99.90;;;19.70;75.57;95641.19;10473299;28;1832;-74
2022/06/15 22:59:16;;;;;;;;;;;20.60;99.90;;;19.71;75.90;95640.84;10469153;28;1798;-74
2022/06/15 23:04:19;;;;;;;;;;;20.60;99.90;;;19.66;76.54;95648.44;10465822;28;2012;-74
2022/06/15 23:09:23;;;;;;;;;;;20.50;99.90;;;19.47;76.81;95642.63;10471160;28;1896;-75
2022/06/15 23:14:27;;;;;;;;;;;20.30;99.90;;;19.32;77.91;95652.22;10473156;28;1956;-74
2022/06/15 23:19:31;;;;;;;;;;;20.40;99.90;;;19.26;79.06;95648.88;10482480;28;1846;-74
2022/06/15 23:24:34;;;;;;;;;;;20.20;99.90;;;19.22;79.54;95649.91;10479420;28;1971;-73
2022/06/15 23:29:37;;;;;;;;;;;20.10;99.90;;;19.16;78.60;95654.75;10468914;28;1869;-73
2022/06/15 23:34:40;;;;;;;;;;;20.10;99.90;;;19.09;78.54;95654.47;10469757;28;1845;-75
2022/06/15 23:39:43;;;;;;;;;;;20.00;99.90;;;19.02;78.54;95646.00;10476798;28;1936;-75
2022/06/15 23:44:49;;;;;;;;;;;19.90;99.90;;;18.99;79.01;95644.75;10471442;28;2054;-74
2022/06/15 23:49:53;;;;;;;;;;;20.00;99.90;;;18.87;79.05;95645.44;10473314;28;1943;-74
2022/06/15 23:54:58;;;;;;;;;;;19.70;99.90;;;18.84;78.88;95637.94;10473478;28;1955;-74
